createdAt,value
2022-08-24T00:01:09.457Z,16.07
2022-08-24T00:03:37.580Z,16.09
2022-08-24T00:06:07.357Z,16.10
2022-08-24T00:08:34.381Z,16.10
2022-08-24T00:11:01.031Z,16.06
2022-08-24T00:13:29.433Z,16.03
2022-08-24T00:15:59.709Z,16.00
2022-08-24T00:18:27.238Z,15.97
2022-08-24T00:20:54.199Z,15.98
2022-08-24T00:23:21.551Z,15.98
2022-08-24T00:25:48.378Z,15.92
2022-08-24T00:28:15.661Z,15.85
2022-08-24T00:30:42.592Z,15.75
2022-08-24T00:33:09.250Z,15.74
2022-08-24T00:35:36.686Z,15.75
2022-08-24T00:38:03.446Z,15.74
2022-08-24T00:40:35.003Z,15.74
2022-08-24T00:43:04.300Z,15.73
2022-08-24T00:45:34.206Z,15.76
2022-08-24T00:48:12.120Z,15.76
2022-08-24T00:50:45.002Z,15.76
2022-08-24T00:53:26.003Z,15.76
2022-08-24T00:55:57.606Z,15.82
2022-08-24T00:58:31.770Z,15.82
2022-08-24T01:01:03.074Z,15.82
2022-08-24T01:03:32.232Z,15.86
2022-08-24T01:05:59.368Z,15.87
2022-08-24T01:08:26.848Z,15.88
2022-08-24T01:11:06.457Z,15.93
2022-08-24T01:13:34.883Z,15.87
2022-08-24T01:16:04.516Z,15.86
2022-08-24T01:18:50.331Z,15.84
2022-08-24T01:21:43.429Z,15.83
2022-08-24T01:24:14.723Z,15.82
2022-08-24T01:26:48.572Z,15.83
2022-08-24T01:29:25.198Z,15.84
2022-08-24T01:31:53.753Z,15.81
2022-08-24T01:34:21.386Z,15.82
2022-08-24T01:37:00.295Z,15.83
2022-08-24T01:39:30.504Z,15.84
2022-08-24T01:41:58.580Z,15.86
2022-08-24T01:44:28.666Z,15.84
2022-08-24T01:46:56.751Z,15.80
2022-08-24T01:49:29.969Z,15.78
2022-08-24T01:51:58.608Z,15.76
2022-08-24T01:54:25.921Z,15.76
2022-08-24T01:56:53.432Z,15.72
2022-08-24T01:59:21.370Z,15.70
2022-08-24T02:01:52.717Z,15.69
2022-08-24T02:04:20.238Z,15.68
2022-08-24T02:06:47.079Z,15.67
2022-08-24T02:09:13.697Z,15.63
2022-08-24T02:11:41.763Z,15.57
2022-08-24T02:14:08.386Z,15.55
2022-08-24T02:16:35.196Z,15.57
2022-08-24T02:19:02.197Z,15.56
2022-08-24T02:21:29.206Z,15.57
2022-08-24T02:23:55.836Z,15.57
2022-08-24T02:26:22.485Z,15.59
2022-08-24T02:28:52.723Z,15.58
2022-08-24T02:31:21.848Z,15.59
2022-08-24T02:33:48.552Z,15.60
2022-08-24T02:36:25.504Z,15.59
2022-08-24T02:38:54.815Z,15.60
2022-08-24T02:41:22.400Z,15.59
2022-08-24T02:43:49.049Z,15.57
2022-08-24T02:46:24.915Z,15.56
2022-08-24T02:48:58.039Z,15.57
2022-08-24T02:51:44.247Z,15.53
2022-08-24T02:54:13.125Z,15.52
2022-08-24T02:56:39.851Z,15.51
2022-08-24T02:59:06.796Z,15.53
2022-08-24T03:01:33.570Z,15.56
2022-08-24T03:04:00.578Z,15.55
2022-08-24T03:06:27.218Z,15.57
2022-08-24T03:08:56.480Z,15.58
2022-08-24T03:11:27.781Z,15.59
2022-08-24T03:13:55.853Z,15.59
2022-08-24T03:16:22.983Z,15.63
2022-08-24T03:18:49.935Z,15.65
2022-08-24T03:21:17.521Z,15.67
2022-08-24T03:23:44.184Z,15.70
2022-08-24T03:26:11.622Z,15.69
2022-08-24T03:28:38.898Z,15.72
2022-08-24T03:31:06.480Z,15.72
2022-08-24T03:33:33.389Z,15.64
2022-08-24T03:36:00.078Z,15.59
2022-08-24T03:38:26.810Z,15.56
2022-08-24T03:40:53.800Z,15.52
2022-08-24T03:43:38.873Z,15.54
2022-08-24T03:46:08.084Z,15.52
2022-08-24T03:48:35.241Z,15.55
2022-08-24T03:51:02.220Z,15.55
2022-08-24T03:53:28.962Z,15.59
2022-08-24T03:55:55.568Z,15.60
2022-08-24T03:58:22.243Z,15.58
2022-08-24T04:00:49.165Z,15.62
2022-08-24T04:03:16.413Z,15.64
2022-08-24T04:05:43.115Z,15.64
2022-08-24T04:08:10.399Z,15.67
2022-08-24T04:10:38.392Z,15.69
2022-08-24T04:13:08.384Z,15.74
2022-08-24T04:15:40.601Z,15.76
2022-08-24T04:18:07.222Z,15.76
2022-08-24T04:20:43.577Z,15.73
2022-08-24T04:23:13.097Z,15.75
2022-08-24T04:25:47.989Z,15.72
2022-08-24T04:28:21.286Z,15.73
2022-08-24T04:30:51.993Z,15.74
2022-08-24T04:33:19.744Z,15.78
2022-08-24T04:35:48.289Z,15.79
2022-08-24T04:38:18.496Z,15.78
2022-08-24T04:40:46.853Z,15.81
2022-08-24T04:43:19.789Z,15.82
2022-08-24T04:45:48.183Z,15.83
2022-08-24T04:48:16.024Z,15.87
2022-08-24T04:50:43.925Z,15.88
2022-08-24T04:53:13.455Z,15.93
2022-08-24T04:55:46.287Z,15.97
2022-08-24T04:58:15.126Z,16.01
2022-08-24T05:00:42.961Z,16.06
2022-08-24T05:03:11.252Z,16.08
2022-08-24T05:05:44.298Z,16.13
2022-08-24T05:08:12.157Z,16.15
2022-08-24T05:10:40.564Z,16.15
2022-08-24T05:13:07.533Z,16.22
2022-08-24T05:15:35.666Z,16.25
2022-08-24T05:18:03.129Z,16.27
2022-08-24T05:20:29.794Z,16.29
2022-08-24T05:22:58.971Z,16.32
2022-08-24T05:25:28.308Z,16.34
2022-08-24T05:27:54.968Z,16.39
2022-08-24T05:30:21.677Z,16.40
2022-08-24T05:32:49.375Z,16.46
2022-08-24T05:35:16.320Z,16.48
2022-08-24T05:37:43.242Z,16.53
2022-08-24T05:40:12.875Z,16.57
2022-08-24T05:42:40.479Z,16.59
2022-08-24T05:45:08.122Z,16.66
2022-08-24T05:47:35.247Z,16.72
2022-08-24T05:50:02.887Z,16.79
2022-08-24T05:52:30.577Z,16.83
2022-08-24T05:54:59.122Z,16.91
2022-08-24T05:57:30.923Z,16.96
2022-08-24T05:59:57.797Z,16.97
2022-08-24T06:02:24.682Z,16.99
2022-08-24T06:04:56.536Z,17.03
2022-08-24T06:07:23.385Z,17.09
2022-08-24T06:09:50.050Z,17.14
2022-08-24T06:12:16.892Z,17.17
2022-08-24T06:14:47.754Z,17.20
2022-08-24T06:17:14.587Z,17.21
2022-08-24T06:19:42.391Z,17.28
2022-08-24T06:22:09.753Z,17.35
2022-08-24T06:24:56.558Z,17.47
2022-08-24T06:27:26.114Z,17.54
2022-08-24T06:29:57.231Z,17.61
2022-08-24T06:32:23.920Z,17.64
2022-08-24T06:34:50.865Z,17.72
2022-08-24T06:37:18.392Z,17.79
2022-08-24T06:39:45.566Z,17.92
2022-08-24T06:42:12.237Z,18.11
2022-08-24T06:44:38.951Z,18.18
2022-08-24T06:47:06.153Z,18.23
2022-08-24T06:49:32.940Z,18.11
2022-08-24T06:51:59.758Z,18.00
2022-08-24T06:54:26.502Z,17.89
2022-08-24T06:56:53.159Z,17.78
2022-08-24T06:59:20.829Z,17.73
2022-08-24T07:01:47.603Z,17.68
2022-08-24T07:04:14.749Z,17.69
2022-08-24T07:06:41.440Z,17.65
2022-08-24T07:09:08.109Z,17.66
2022-08-24T07:11:35.844Z,17.63
2022-08-24T07:14:02.473Z,17.65
2022-08-24T07:16:29.283Z,17.73
2022-08-24T07:18:55.958Z,17.76
2022-08-24T07:21:23.129Z,17.82
2022-08-24T07:23:51.078Z,17.85
2022-08-24T07:26:23.040Z,17.89
2022-08-24T07:29:05.437Z,17.90
2022-08-24T07:31:36.265Z,17.94
2022-08-24T07:34:04.460Z,18.03
2022-08-24T07:36:31.307Z,18.13
2022-08-24T07:38:58.922Z,18.17
2022-08-24T07:44:15.940Z,18.34
2022-08-24T07:46:43.148Z,18.37
2022-08-24T07:49:21.557Z,18.51
2022-08-24T07:51:58.193Z,18.57
2022-08-24T07:54:24.930Z,18.53
2022-08-24T07:56:52.442Z,18.61
2022-08-24T07:59:19.081Z,18.68
2022-08-24T08:01:45.793Z,18.74
2022-08-24T08:04:14.142Z,18.82
2022-08-24T08:06:42.621Z,18.87
2022-08-24T08:09:09.239Z,18.94
2022-08-24T08:11:35.874Z,18.98
2022-08-24T08:14:02.622Z,19.11
2022-08-24T08:16:29.797Z,19.15
2022-08-24T08:19:11.977Z,19.13
2022-08-24T08:22:02.199Z,19.15
2022-08-24T08:24:29.257Z,19.21
2022-08-24T08:26:57.849Z,19.25
2022-08-24T08:29:25.562Z,19.12
2022-08-24T08:31:53.539Z,19.14
2022-08-24T08:34:20.287Z,19.13
2022-08-24T08:36:47.941Z,19.26
2022-08-24T08:39:16.366Z,19.39
2022-08-24T08:42:15.215Z,19.51
2022-08-24T08:44:58.905Z,19.56
2022-08-24T08:51:33.927Z,19.73
2022-08-24T08:54:43.820Z,19.72
2022-08-24T09:33:07.768Z,20.69
2022-08-24T09:36:10.250Z,20.47
2022-08-24T09:39:24.775Z,20.54
2022-08-24T09:42:28.666Z,20.65
2022-08-24T09:45:37.083Z,20.75
2022-08-24T09:48:45.771Z,20.85
2022-08-24T09:51:51.160Z,20.83
2022-08-24T09:55:04.950Z,20.79
2022-08-24T09:58:13.321Z,20.75
2022-08-24T10:01:02.330Z,20.70
2022-08-24T10:04:11.310Z,20.71
2022-08-24T10:07:11.205Z,20.91
2022-08-24T10:10:19.869Z,21.02
2022-08-24T10:13:34.155Z,21.14
2022-08-24T10:16:33.476Z,21.26
2022-08-24T10:19:24.105Z,21.26
2022-08-24T10:22:08.302Z,21.33
2022-08-24T10:24:55.576Z,21.34
2022-08-24T10:28:18.618Z,21.34
2022-08-24T10:31:12.079Z,21.59
2022-08-24T10:34:47.160Z,21.80
2022-08-24T10:38:40.880Z,21.97
2022-08-24T10:42:03.049Z,22.28
2022-08-24T10:44:49.247Z,22.43
2022-08-24T10:47:30.911Z,22.48
2022-08-24T10:50:35.835Z,22.57
2022-08-24T10:53:26.529Z,22.62
2022-08-24T10:56:20.833Z,22.59
2022-08-24T10:59:22.463Z,22.58
2022-08-24T11:02:12.753Z,22.70
2022-08-24T11:04:40.342Z,22.80
2022-08-24T11:07:24.630Z,22.85
2022-08-24T11:10:01.061Z,22.76
2022-08-24T11:12:42.871Z,22.85
2022-08-24T11:15:24.909Z,22.90
2022-08-24T11:18:03.535Z,23.00
2022-08-24T11:20:40.109Z,23.04
2022-08-24T11:23:31.661Z,23.03
2022-08-24T11:26:18.689Z,22.92
2022-08-24T11:28:50.830Z,22.87
2022-08-24T11:31:23.837Z,22.71
2022-08-24T11:33:58.614Z,22.67
2022-08-24T11:36:29.386Z,22.67
2022-08-24T11:39:23.752Z,22.57
2022-08-24T11:42:18.498Z,22.65
2022-08-24T11:45:02.783Z,22.74
2022-08-24T11:47:51.839Z,22.80
2022-08-24T11:51:00.881Z,22.78
2022-08-24T11:54:19.548Z,22.81
2022-08-24T12:31:09.892Z,22.86
2022-08-24T12:33:40.215Z,22.91
2022-08-24T12:36:23.582Z,22.95
2022-08-24T12:39:03.190Z,23.02
2022-08-24T12:41:38.301Z,23.10
2022-08-24T12:44:14.847Z,23.19
2022-08-24T12:46:45.456Z,23.20
2022-08-24T12:49:23.550Z,23.30
2022-08-24T12:52:11.577Z,23.25
2022-08-24T12:55:04.563Z,23.25
2022-08-24T12:57:54.557Z,23.26
2022-08-24T13:00:45.474Z,23.33
2022-08-24T13:03:34.807Z,23.24
2022-08-24T13:06:06.749Z,23.10
2022-08-24T13:08:43.607Z,23.07
2022-08-24T13:11:28.600Z,23.00
2022-08-24T13:14:18.439Z,22.99
2022-08-24T13:17:10.856Z,23.04
2022-08-24T13:19:44.154Z,23.01
2022-08-24T13:22:31.080Z,22.87
2022-08-24T13:25:02.623Z,22.83
2022-08-24T13:27:49.333Z,22.87
2022-08-24T13:30:24.499Z,22.84
2022-08-24T13:33:02.338Z,22.89
2022-08-24T13:35:54.400Z,22.84
2022-08-24T13:38:52.310Z,22.86
2022-08-24T13:42:10.845Z,22.90
2022-08-24T13:45:12.823Z,22.94
2022-08-24T13:48:27.279Z,22.95
2022-08-24T13:51:26.789Z,22.93
2022-08-24T13:54:26.925Z,22.88
2022-08-24T13:57:27.398Z,22.95
2022-08-24T14:00:33.186Z,22.98
2022-08-24T14:03:20.079Z,23.01
2022-08-24T14:05:57.408Z,23.06
2022-08-24T14:08:50.956Z,23.11
2022-08-24T14:24:08.112Z,23.50
2022-08-24T14:27:00.242Z,23.38
2022-08-24T14:29:33.463Z,23.29
2022-08-24T14:32:23.685Z,23.35
2022-08-24T14:35:03.800Z,23.38
2022-08-24T14:41:43.745Z,23.35
2022-08-24T14:44:21.860Z,23.34
2022-08-24T14:47:04.522Z,23.37
2022-08-24T14:50:13.329Z,23.33
2022-08-24T14:52:53.150Z,23.37
2022-08-24T14:55:30.361Z,23.37
2022-08-24T14:58:40.483Z,23.38
2022-08-24T15:01:46.952Z,23.46
2022-08-24T15:05:18.156Z,23.50
2022-08-24T15:08:15.883Z,23.58
2022-08-24T15:11:05.566Z,23.60
2022-08-24T15:13:41.005Z,23.57
2022-08-24T15:16:29.617Z,23.53
2022-08-24T15:19:16.439Z,23.53
2022-08-24T15:21:59.302Z,23.55
2022-08-24T15:25:03.094Z,23.67
2022-08-24T15:27:56.131Z,23.65
2022-08-24T15:30:35.881Z,23.60
2022-08-24T15:33:19.167Z,23.62
2022-08-24T15:36:03.553Z,23.53
2022-08-24T15:38:35.533Z,23.45
2022-08-24T15:41:22.733Z,23.40
2022-08-24T15:43:59.795Z,23.38
2022-08-24T15:46:31.919Z,23.28
2022-08-24T15:49:24.525Z,23.16
2022-08-24T15:52:37.114Z,23.17
2022-08-24T15:55:07.104Z,23.18
2022-08-24T15:57:42.854Z,23.14
2022-08-24T16:00:40.405Z,23.07
2022-08-24T16:03:42.218Z,23.02
2022-08-24T16:06:38.795Z,22.94
2022-08-24T16:09:32.730Z,22.90
2022-08-24T16:12:05.112Z,22.79
2022-08-24T16:14:35.345Z,22.66
2022-08-24T16:17:18.632Z,22.55
2022-08-24T16:19:52.354Z,22.45
2022-08-24T16:22:30.331Z,22.43
2022-08-24T16:25:17.555Z,22.34
2022-08-24T16:28:22.635Z,22.24
2022-08-24T16:30:55.597Z,22.14
2022-08-24T16:33:51.658Z,22.08
2022-08-24T16:36:20.815Z,22.05
2022-08-24T16:38:50.216Z,22.00
2022-08-24T16:41:21.231Z,21.96
2022-08-24T16:43:48.751Z,21.95
2022-08-24T16:46:20.676Z,21.89
2022-08-24T16:48:47.392Z,21.85
2022-08-24T16:51:14.076Z,21.77
2022-08-24T16:53:40.892Z,21.73
2022-08-24T16:56:08.871Z,21.75
2022-08-24T16:58:36.988Z,21.72
2022-08-24T17:01:05.250Z,21.67
2022-08-24T17:03:32.017Z,21.66
2022-08-24T17:05:59.505Z,21.65
2022-08-24T17:08:28.785Z,21.60
2022-08-24T17:10:55.507Z,21.58
2022-08-24T17:13:46.130Z,21.54
2022-08-24T17:16:12.038Z,21.52
2022-08-24T17:18:39.701Z,21.47
2022-08-24T17:21:06.553Z,21.43
2022-08-24T17:23:34.023Z,21.37
2022-08-24T17:26:03.346Z,21.31
2022-08-24T17:28:31.428Z,21.26
2022-08-24T17:30:58.878Z,21.24
2022-08-24T17:33:25.537Z,21.19
2022-08-24T17:35:54.987Z,21.12
2022-08-24T17:38:22.137Z,21.08
2022-08-24T17:40:49.996Z,21.04
2022-08-24T17:43:16.862Z,21.00
2022-08-24T17:45:43.834Z,20.97
2022-08-24T17:48:15.836Z,20.92
2022-08-24T17:50:42.789Z,20.88
2022-08-24T17:53:09.845Z,20.86
2022-08-24T17:55:36.799Z,20.82
2022-08-24T17:58:03.656Z,20.78
2022-08-24T18:00:30.354Z,20.74
2022-08-24T18:02:57.033Z,20.68
2022-08-24T18:05:23.934Z,20.62
2022-08-24T18:07:54.628Z,20.60
2022-08-24T18:10:27.843Z,20.56
2022-08-24T18:12:55.467Z,20.53
2022-08-24T18:15:22.124Z,20.50
2022-08-24T18:18:02.894Z,20.48
2022-08-24T18:20:35.282Z,20.43
2022-08-24T18:23:02.361Z,20.40
2022-08-24T18:25:29.995Z,20.36
2022-08-24T18:27:58.509Z,20.31
2022-08-24T18:30:31.677Z,20.27
2022-08-24T18:33:01.810Z,20.18
2022-08-24T18:35:30.767Z,20.12
2022-08-24T18:37:57.474Z,20.07
2022-08-24T18:40:29.157Z,19.98
2022-08-24T18:43:01.858Z,19.92
2022-08-24T18:45:31.554Z,19.84
2022-08-24T18:47:59.067Z,19.80
2022-08-24T18:50:28.884Z,19.76
2022-08-24T18:52:56.379Z,19.69
2022-08-24T18:55:24.265Z,19.65
2022-08-24T18:57:51.932Z,19.60
2022-08-24T19:00:19.017Z,19.56
2022-08-24T19:02:45.864Z,19.53
2022-08-24T19:05:24.595Z,19.51
2022-08-24T19:07:54.390Z,19.48
2022-08-24T19:10:28.246Z,19.43
2022-08-24T19:12:58.785Z,19.37
2022-08-24T19:15:32.281Z,19.33
2022-08-24T19:18:08.131Z,19.28
2022-08-24T19:20:35.601Z,19.28
2022-08-24T19:23:08.548Z,19.26
2022-08-24T19:25:37.372Z,19.27
2022-08-24T19:28:05.130Z,19.22
2022-08-24T19:30:32.000Z,19.17
2022-08-24T19:33:00.196Z,19.13
2022-08-24T19:35:27.274Z,19.08
2022-08-24T19:37:54.416Z,19.05
2022-08-24T19:40:21.167Z,19.02
2022-08-24T19:42:50.903Z,18.98
2022-08-24T19:45:42.448Z,18.95
2022-08-24T19:48:10.339Z,18.95
2022-08-24T19:50:37.217Z,18.91
2022-08-24T19:53:06.040Z,18.86
2022-08-24T19:55:33.118Z,18.83
2022-08-24T19:58:29.831Z,18.80
2022-08-24T20:01:01.970Z,18.74
2022-08-24T20:03:28.897Z,18.70
2022-08-24T20:05:55.775Z,18.68
2022-08-24T20:08:22.433Z,18.67
2022-08-24T20:10:49.761Z,18.65
2022-08-24T20:13:16.678Z,18.62
2022-08-24T20:15:43.652Z,18.60
2022-08-24T20:18:10.861Z,18.52
2022-08-24T20:20:37.831Z,18.49
2022-08-24T20:23:06.343Z,18.44
2022-08-24T20:25:37.378Z,18.41
2022-08-24T20:28:28.708Z,18.40
2022-08-24T20:30:52.553Z,18.40
2022-08-24T20:33:23.799Z,18.37
2022-08-24T20:35:51.116Z,18.33
2022-08-24T20:38:19.983Z,18.27
2022-08-24T20:40:47.684Z,18.24
2022-08-24T20:43:14.648Z,18.17
2022-08-24T20:45:41.744Z,18.15
2022-08-24T20:48:12.192Z,18.10
2022-08-24T20:50:43.780Z,18.10
2022-08-24T20:53:11.485Z,18.08
2022-08-24T20:55:42.152Z,18.07
2022-08-24T20:58:09.952Z,18.04
2022-08-24T21:00:37.321Z,18.02
2022-08-24T21:03:04.600Z,18.00
2022-08-24T21:05:31.437Z,17.99
2022-08-24T21:07:58.399Z,17.97
2022-08-24T21:10:27.071Z,17.94
2022-08-24T21:12:53.902Z,17.92
2022-08-24T21:15:22.421Z,17.88
2022-08-24T21:17:49.501Z,17.84
2022-08-24T21:20:16.527Z,17.76
2022-08-24T21:22:46.186Z,17.73
2022-08-24T21:25:14.594Z,17.72
2022-08-24T21:27:44.115Z,17.69
2022-08-24T21:30:14.130Z,17.72
2022-08-24T21:32:59.386Z,17.67
2022-08-24T21:35:26.363Z,17.63
2022-08-24T21:37:53.337Z,17.61
2022-08-24T21:40:22.010Z,17.58
2022-08-24T21:42:49.453Z,17.58
2022-08-24T21:45:16.490Z,17.56
2022-08-24T21:47:43.545Z,17.55
2022-08-24T21:50:10.890Z,17.53
2022-08-24T21:52:37.819Z,17.50
2022-08-24T21:55:10.626Z,17.51
2022-08-24T21:57:41.469Z,17.51
2022-08-24T22:00:13.809Z,17.50
2022-08-24T22:02:40.485Z,17.50
2022-08-24T22:05:08.012Z,17.51
2022-08-24T22:07:35.374Z,17.53
2022-08-24T22:10:02.143Z,17.54
2022-08-24T22:12:28.971Z,17.58
2022-08-24T22:14:55.753Z,17.54
2022-08-24T22:17:22.498Z,17.52
2022-08-24T22:19:49.171Z,17.48
2022-08-24T22:22:15.841Z,17.44
2022-08-24T22:24:42.716Z,17.40
2022-08-24T22:27:09.563Z,17.36
2022-08-24T22:29:36.258Z,17.33
2022-08-24T22:32:03.181Z,17.32
2022-08-24T22:34:29.845Z,17.31
2022-08-24T22:36:59.454Z,17.29
2022-08-24T22:39:26.151Z,17.30
2022-08-24T22:41:52.879Z,17.33
2022-08-24T22:44:19.556Z,17.30
2022-08-24T22:46:51.602Z,17.27
2022-08-24T22:49:19.884Z,17.26
2022-08-24T22:51:47.297Z,17.24
2022-08-24T22:54:14.606Z,17.24
2022-08-24T22:56:47.512Z,17.25
2022-08-24T22:59:22.848Z,17.20
2022-08-24T23:01:52.339Z,17.18
2022-08-24T23:04:23.656Z,17.14
2022-08-24T23:06:51.032Z,17.13
2022-08-24T23:09:18.410Z,16.96
2022-08-24T23:11:45.645Z,16.88
2022-08-24T23:14:16.269Z,16.83
2022-08-24T23:16:47.799Z,16.82
2022-08-24T23:19:38.571Z,16.89
2022-08-24T23:22:07.265Z,16.95
2022-08-24T23:24:34.328Z,16.97
2022-08-24T23:27:02.200Z,16.97
2022-08-24T23:29:29.067Z,17.02
2022-08-24T23:31:55.715Z,17.00
2022-08-24T23:34:23.236Z,17.00
2022-08-24T23:36:51.161Z,16.96
2022-08-24T23:39:18.993Z,16.96
2022-08-24T23:41:46.954Z,16.96
2022-08-24T23:44:20.697Z,16.97
2022-08-24T23:46:48.308Z,16.96
2022-08-24T23:49:16.705Z,16.94
2022-08-24T23:51:43.619Z,16.94
2022-08-24T23:54:11.022Z,16.97
2022-08-24T23:56:39.805Z,16.99
2022-08-24T23:59:09.626Z,16.98
